sensor_id;sensor_type;location;lat;lon;timestamp;P1;durP1;ratioP1;P2;durP2;ratioP2
55423;SDS011;41294;42.666;23.350;2022-07-06T00:01:06;13.30;;;11.75;;
55423;SDS011;41294;42.666;23.350;2022-07-06T00:03:31;13.18;;;11.75;;
55423;SDS011;41294;42.666;23.350;2022-07-06T00:05:57;13.70;;;12.35;;
55423;SDS011;41294;42.666;23.350;2022-07-06T00:08:22;13.75;;;12.25;;
55423;SDS011;41294;42.666;23.350;2022-07-06T00:10:48;13.20;;;11.88;;
55423;SDS011;41294;42.666;23.350;2022-07-06T00:13:13;12.63;;;11.23;;
55423;SDS011;41294;42.666;23.350;2022-07-06T00:15:39;13.35;;;12.02;;
55423;SDS011;41294;42.666;23.350;2022-07-06T00:18:04;13.57;;;12.30;;
55423;SDS011;41294;42.666;23.350;2022-07-06T00:20:30;13.60;;;12.25;;
55423;SDS011;41294;42.666;23.350;2022-07-06T00:22:55;15.05;;;11.93;;
55423;SDS011;41294;42.666;23.350;2022-07-06T00:25:20;14.50;;;13.00;;
55423;SDS011;41294;42.666;23.350;2022-07-06T00:27:46;14.32;;;12.50;;
55423;SDS011;41294;42.666;23.350;2022-07-06T00:30:11;13.90;;;12.50;;
55423;SDS011;41294;42.666;23.350;2022-07-06T00:32:37;13.40;;;12.10;;
55423;SDS011;41294;42.666;23.350;2022-07-06T00:35:02;13.93;;;12.27;;
55423;SDS011;41294;42.666;23.350;2022-07-06T00:37:29;13.57;;;12.15;;
55423;SDS011;41294;42.666;23.350;2022-07-06T00:39:54;13.88;;;12.48;;
55423;SDS011;41294;42.666;23.350;2022-07-06T00:42:20;13.80;;;12.40;;
55423;SDS011;41294;42.666;23.350;2022-07-06T00:44:45;14.52;;;13.02;;
55423;SDS011;41294;42.666;23.350;2022-07-06T00:47:10;13.63;;;11.38;;
55423;SDS011;41294;42.666;23.350;2022-07-06T00:49:36;14.68;;;11.70;;
55423;SDS011;41294;42.666;23.350;2022-07-06T00:52:20;13.13;;;11.77;;
55423;SDS011;41294;42.666;23.350;2022-07-06T00:54:45;13.05;;;11.50;;
55423;SDS011;41294;42.666;23.350;2022-07-06T00:57:11;13.13;;;11.68;;
55423;SDS011;41294;42.666;23.350;2022-07-06T00:59:37;13.88;;;12.38;;
55423;SDS011;41294;42.666;23.350;2022-07-06T01:02:03;15.82;;;12.60;;
55423;SDS011;41294;42.666;23.350;2022-07-06T01:04:28;13.23;;;11.88;;
55423;SDS011;41294;42.666;23.350;2022-07-06T01:06:54;14.27;;;12.88;;
55423;SDS011;41294;42.666;23.350;2022-07-06T01:09:21;16.52;;;13.05;;
55423;SDS011;41294;42.666;23.350;2022-07-06T01:11:47;17.92;;;15.68;;
55423;SDS011;41294;42.666;23.350;2022-07-06T01:14:13;17.63;;;15.93;;
55423;SDS011;41294;42.666;23.350;2022-07-06T01:16:39;23.08;;;20.20;;
55423;SDS011;41294;42.666;23.350;2022-07-06T01:19:04;21.27;;;18.00;;
55423;SDS011;41294;42.666;23.350;2022-07-06T01:21:30;23.10;;;17.90;;
55423;SDS011;41294;42.666;23.350;2022-07-06T01:23:55;18.75;;;16.85;;
55423;SDS011;41294;42.666;23.350;2022-07-06T01:26:21;19.50;;;17.45;;
55423;SDS011;41294;42.666;23.350;2022-07-06T01:28:50;21.30;;;17.25;;
55423;SDS011;41294;42.666;23.350;2022-07-06T01:31:20;23.02;;;17.50;;
55423;SDS011;41294;42.666;23.350;2022-07-06T01:33:48;20.90;;;18.70;;
55423;SDS011;41294;42.666;23.350;2022-07-06T01:36:15;25.27;;;20.10;;
55423;SDS011;41294;42.666;23.350;2022-07-06T01:38:53;21.30;;;18.92;;
55423;SDS011;41294;42.666;23.350;2022-07-06T01:41:22;23.55;;;21.02;;
55423;SDS011;41294;42.666;23.350;2022-07-06T01:43:47;24.95;;;21.90;;
55423;SDS011;41294;42.666;23.350;2022-07-06T01:46:13;23.27;;;20.85;;
55423;SDS011;41294;42.666;23.350;2022-07-06T01:48:39;21.27;;;19.02;;
55423;SDS011;41294;42.666;23.350;2022-07-06T01:51:05;24.50;;;21.90;;
55423;SDS011;41294;42.666;23.350;2022-07-06T01:53:31;23.52;;;20.70;;
55423;SDS011;41294;42.666;23.350;2022-07-06T01:55:56;24.17;;;18.48;;
55423;SDS011;41294;42.666;23.350;2022-07-06T01:58:22;21.60;;;18.23;;
55423;SDS011;41294;42.666;23.350;2022-07-06T02:00:48;18.45;;;16.48;;
55423;SDS011;41294;42.666;23.350;2022-07-06T02:03:13;18.58;;;15.48;;
55423;SDS011;41294;42.666;23.350;2022-07-06T02:05:39;15.32;;;13.38;;
55423;SDS011;41294;42.666;23.350;2022-07-06T02:08:04;15.45;;;11.93;;
55423;SDS011;41294;42.666;23.350;2022-07-06T02:10:30;13.05;;;11.70;;
55423;SDS011;41294;42.666;23.350;2022-07-06T02:12:55;14.07;;;12.57;;
55423;SDS011;41294;42.666;23.350;2022-07-06T02:15:21;13.93;;;12.38;;
55423;SDS011;41294;42.666;23.350;2022-07-06T02:17:46;13.43;;;11.68;;
55423;SDS011;41294;42.666;23.350;2022-07-06T02:20:12;13.07;;;11.65;;
55423;SDS011;41294;42.666;23.350;2022-07-06T02:22:37;15.60;;;13.48;;
55423;SDS011;41294;42.666;23.350;2022-07-06T02:25:03;17.35;;;13.52;;
55423;SDS011;41294;42.666;23.350;2022-07-06T02:27:29;13.82;;;12.43;;
55423;SDS011;41294;42.666;23.350;2022-07-06T02:29:54;11.50;;;10.15;;
55423;SDS011;41294;42.666;23.350;2022-07-06T02:32:20;14.52;;;10.60;;
55423;SDS011;41294;42.666;23.350;2022-07-06T02:34:45;14.18;;;11.70;;
55423;SDS011;41294;42.666;23.350;2022-07-06T02:37:10;14.50;;;9.90;;
55423;SDS011;41294;42.666;23.350;2022-07-06T02:39:36;13.00;;;11.50;;
55423;SDS011;41294;42.666;23.350;2022-07-06T02:42:01;14.57;;;11.30;;
55423;SDS011;41294;42.666;23.350;2022-07-06T02:44:27;12.70;;;11.32;;
55423;SDS011;41294;42.666;23.350;2022-07-06T02:46:52;12.32;;;11.07;;
55423;SDS011;41294;42.666;23.350;2022-07-06T02:49:18;11.85;;;10.68;;
55423;SDS011;41294;42.666;23.350;2022-07-06T02:51:43;12.15;;;10.13;;
55423;SDS011;41294;42.666;23.350;2022-07-06T02:54:08;12.07;;;10.88;;
55423;SDS011;41294;42.666;23.350;2022-07-06T02:56:34;12.13;;;10.82;;
55423;SDS011;41294;42.666;23.350;2022-07-06T02:58:59;13.00;;;11.60;;
55423;SDS011;41294;42.666;23.350;2022-07-06T03:01:25;12.48;;;10.57;;
55423;SDS011;41294;42.666;23.350;2022-07-06T03:03:50;12.35;;;11.15;;
55423;SDS011;41294;42.666;23.350;2022-07-06T03:06:16;15.13;;;10.57;;
55423;SDS011;41294;42.666;23.350;2022-07-06T03:08:41;15.27;;;11.32;;
55423;SDS011;41294;42.666;23.350;2022-07-06T03:11:07;12.65;;;11.38;;
55423;SDS011;41294;42.666;23.350;2022-07-06T03:13:32;15.80;;;11.95;;
55423;SDS011;41294;42.666;23.350;2022-07-06T03:15:58;19.33;;;11.85;;
55423;SDS011;41294;42.666;23.350;2022-07-06T03:18:23;14.32;;;12.18;;
55423;SDS011;41294;42.666;23.350;2022-07-06T03:20:49;14.90;;;12.32;;
55423;SDS011;41294;42.666;23.350;2022-07-06T03:23:14;17.40;;;12.57;;
55423;SDS011;41294;42.666;23.350;2022-07-06T03:25:40;13.98;;;12.57;;
55423;SDS011;41294;42.666;23.350;2022-07-06T03:28:05;14.82;;;12.48;;
55423;SDS011;41294;42.666;23.350;2022-07-06T03:30:31;12.93;;;11.73;;
55423;SDS011;41294;42.666;23.350;2022-07-06T03:32:56;15.48;;;13.93;;
55423;SDS011;41294;42.666;23.350;2022-07-06T03:35:22;13.70;;;12.32;;
55423;SDS011;41294;42.666;23.350;2022-07-06T03:37:47;13.18;;;11.77;;
55423;SDS011;41294;42.666;23.350;2022-07-06T03:40:13;14.48;;;12.27;;
55423;SDS011;41294;42.666;23.350;2022-07-06T03:42:39;13.32;;;11.40;;
55423;SDS011;41294;42.666;23.350;2022-07-06T03:45:05;12.93;;;11.63;;
55423;SDS011;41294;42.666;23.350;2022-07-06T03:47:31;13.05;;;11.75;;
55423;SDS011;41294;42.666;23.350;2022-07-06T03:49:57;13.27;;;11.82;;
55423;SDS011;41294;42.666;23.350;2022-07-06T03:52:22;15.60;;;11.75;;
55423;SDS011;41294;42.666;23.350;2022-07-06T03:54:48;15.35;;;10.80;;
55423;SDS011;41294;42.666;23.350;2022-07-06T03:57:13;13.98;;;10.85;;
55423;SDS011;41294;42.666;23.350;2022-07-06T03:59:39;11.52;;;10.32;;
55423;SDS011;41294;42.666;23.350;2022-07-06T04:02:05;11.80;;;10.32;;
55423;SDS011;41294;42.666;23.350;2022-07-06T04:04:30;10.75;;;9.30;;
55423;SDS011;41294;42.666;23.350;2022-07-06T04:06:56;10.77;;;9.52;;
55423;SDS011;41294;42.666;23.350;2022-07-06T04:09:21;9.40;;;8.07;;
55423;SDS011;41294;42.666;23.350;2022-07-06T04:11:47;8.43;;;7.10;;
55423;SDS011;41294;42.666;23.350;2022-07-06T04:14:12;8.65;;;5.80;;
55423;SDS011;41294;42.666;23.350;2022-07-06T04:16:38;7.53;;;6.57;;
55423;SDS011;41294;42.666;23.350;2022-07-06T04:19:03;7.47;;;6.00;;
55423;SDS011;41294;42.666;23.350;2022-07-06T04:21:30;8.35;;;6.38;;
55423;SDS011;41294;42.666;23.350;2022-07-06T04:23:55;6.93;;;5.70;;
55423;SDS011;41294;42.666;23.350;2022-07-06T04:26:21;7.50;;;5.80;;
55423;SDS011;41294;42.666;23.350;2022-07-06T04:28:46;5.72;;;4.72;;
55423;SDS011;41294;42.666;23.350;2022-07-06T04:31:11;7.43;;;4.63;;
55423;SDS011;41294;42.666;23.350;2022-07-06T04:33:40;6.43;;;4.97;;
55423;SDS011;41294;42.666;23.350;2022-07-06T04:36:07;7.78;;;4.63;;
55423;SDS011;41294;42.666;23.350;2022-07-06T04:38:32;5.63;;;5.07;;
55423;SDS011;41294;42.666;23.350;2022-07-06T04:40:58;5.30;;;4.82;;
55423;SDS011;41294;42.666;23.350;2022-07-06T04:43:23;8.07;;;4.75;;
55423;SDS011;41294;42.666;23.350;2022-07-06T04:45:49;6.82;;;5.03;;
55423;SDS011;41294;42.666;23.350;2022-07-06T04:48:14;7.10;;;5.10;;
55423;SDS011;41294;42.666;23.350;2022-07-06T04:50:39;8.65;;;4.93;;
55423;SDS011;41294;42.666;23.350;2022-07-06T04:53:05;9.48;;;5.32;;
55423;SDS011;41294;42.666;23.350;2022-07-06T04:55:30;7.97;;;6.00;;
55423;SDS011;41294;42.666;23.350;2022-07-06T04:57:56;9.57;;;6.22;;
55423;SDS011;41294;42.666;23.350;2022-07-06T05:00:21;7.95;;;6.30;;
55423;SDS011;41294;42.666;23.350;2022-07-06T05:02:47;6.72;;;6.10;;
55423;SDS011;41294;42.666;23.350;2022-07-06T05:05:12;9.40;;;6.97;;
55423;SDS011;41294;42.666;23.350;2022-07-06T05:07:38;8.40;;;7.00;;
55423;SDS011;41294;42.666;23.350;2022-07-06T05:10:08;11.77;;;7.03;;
55423;SDS011;41294;42.666;23.350;2022-07-06T05:12:34;9.10;;;8.00;;
55423;SDS011;41294;42.666;23.350;2022-07-06T05:15:00;9.60;;;8.10;;
55423;SDS011;41294;42.666;23.350;2022-07-06T05:17:26;10.95;;;8.40;;
55423;SDS011;41294;42.666;23.350;2022-07-06T05:19:51;10.80;;;8.93;;
55423;SDS011;41294;42.666;23.350;2022-07-06T05:22:17;10.05;;;9.02;;
55423;SDS011;41294;42.666;23.350;2022-07-06T05:24:44;10.98;;;9.25;;
55423;SDS011;41294;42.666;23.350;2022-07-06T05:27:09;11.10;;;9.60;;
55423;SDS011;41294;42.666;23.350;2022-07-06T05:29:35;10.73;;;9.40;;
55423;SDS011;41294;42.666;23.350;2022-07-06T05:32:01;11.60;;;9.60;;
55423;SDS011;41294;42.666;23.350;2022-07-06T05:34:27;13.10;;;9.48;;
55423;SDS011;41294;42.666;23.350;2022-07-06T05:36:52;9.90;;;8.20;;
55423;SDS011;41294;42.666;23.350;2022-07-06T05:39:18;12.05;;;9.40;;
55423;SDS011;41294;42.666;23.350;2022-07-06T05:41:46;9.90;;;7.93;;
55423;SDS011;41294;42.666;23.350;2022-07-06T05:44:11;9.40;;;8.35;;
55423;SDS011;41294;42.666;23.350;2022-07-06T05:46:37;11.50;;;8.77;;
55423;SDS011;41294;42.666;23.350;2022-07-06T05:49:02;11.10;;;8.90;;
55423;SDS011;41294;42.666;23.350;2022-07-06T05:51:46;11.95;;;8.63;;
55423;SDS011;41294;42.666;23.350;2022-07-06T05:54:12;10.52;;;8.52;;
55423;SDS011;41294;42.666;23.350;2022-07-06T05:56:37;10.07;;;9.00;;
55423;SDS011;41294;42.666;23.350;2022-07-06T05:59:03;9.57;;;8.52;;
55423;SDS011;41294;42.666;23.350;2022-07-06T06:01:28;9.57;;;7.93;;
55423;SDS011;41294;42.666;23.350;2022-07-06T06:03:53;11.45;;;8.40;;
55423;SDS011;41294;42.666;23.350;2022-07-06T06:06:19;10.52;;;8.80;;
55423;SDS011;41294;42.666;23.350;2022-07-06T06:08:44;9.23;;;8.27;;
55423;SDS011;41294;42.666;23.350;2022-07-06T06:11:10;12.02;;;8.32;;
55423;SDS011;41294;42.666;23.350;2022-07-06T06:13:35;9.82;;;8.07;;
55423;SDS011;41294;42.666;23.350;2022-07-06T06:16:01;12.05;;;8.25;;
55423;SDS011;41294;42.666;23.350;2022-07-06T06:18:26;9.23;;;8.02;;
55423;SDS011;41294;42.666;23.350;2022-07-06T06:20:52;9.50;;;8.38;;
55423;SDS011;41294;42.666;23.350;2022-07-06T06:23:17;9.82;;;8.88;;
55423;SDS011;41294;42.666;23.350;2022-07-06T06:25:43;11.65;;;9.10;;
55423;SDS011;41294;42.666;23.350;2022-07-06T06:28:09;10.55;;;8.73;;
55423;SDS011;41294;42.666;23.350;2022-07-06T06:30:36;10.77;;;8.43;;
55423;SDS011;41294;42.666;23.350;2022-07-06T06:35:32;11.50;;;9.55;;
55423;SDS011;41294;42.666;23.350;2022-07-06T06:37:57;9.60;;;8.13;;
55423;SDS011;41294;42.666;23.350;2022-07-06T06:40:23;9.73;;;8.82;;
55423;SDS011;41294;42.666;23.350;2022-07-06T06:42:48;10.77;;;9.40;;
55423;SDS011;41294;42.666;23.350;2022-07-06T06:45:14;11.00;;;9.32;;
55423;SDS011;41294;42.666;23.350;2022-07-06T06:47:39;13.68;;;9.65;;
55423;SDS011;41294;42.666;23.350;2022-07-06T06:50:05;13.82;;;9.45;;
55423;SDS011;41294;42.666;23.350;2022-07-06T06:52:30;11.00;;;9.60;;
55423;SDS011;41294;42.666;23.350;2022-07-06T06:54:56;12.30;;;10.27;;
55423;SDS011;41294;42.666;23.350;2022-07-06T06:57:21;10.43;;;9.32;;
55423;SDS011;41294;42.666;23.350;2022-07-06T06:59:47;11.25;;;9.57;;
55423;SDS011;41294;42.666;23.350;2022-07-06T07:02:12;9.60;;;8.68;;
55423;SDS011;41294;42.666;23.350;2022-07-06T07:04:37;17.33;;;9.98;;
55423;SDS011;41294;42.666;23.350;2022-07-06T07:07:03;9.85;;;8.73;;
55423;SDS011;41294;42.666;23.350;2022-07-06T07:09:28;11.13;;;9.45;;
55423;SDS011;41294;42.666;23.350;2022-07-06T07:11:54;14.38;;;9.65;;
55423;SDS011;41294;42.666;23.350;2022-07-06T07:14:19;12.55;;;9.48;;
55423;SDS011;41294;42.666;23.350;2022-07-06T07:16:45;13.05;;;10.02;;
55423;SDS011;41294;42.666;23.350;2022-07-06T07:19:11;15.02;;;10.93;;
55423;SDS011;41294;42.666;23.350;2022-07-06T07:21:36;13.48;;;11.50;;
55423;SDS011;41294;42.666;23.350;2022-07-06T07:24:02;12.32;;;10.98;;
55423;SDS011;41294;42.666;23.350;2022-07-06T07:26:28;11.13;;;9.98;;
55423;SDS011;41294;42.666;23.350;2022-07-06T07:28:54;14.10;;;10.80;;
55423;SDS011;41294;42.666;23.350;2022-07-06T07:31:19;11.68;;;10.48;;
55423;SDS011;41294;42.666;23.350;2022-07-06T07:33:45;14.07;;;11.38;;
55423;SDS011;41294;42.666;23.350;2022-07-06T07:36:10;14.05;;;10.38;;
55423;SDS011;41294;42.666;23.350;2022-07-06T07:38:35;11.30;;;9.55;;
55423;SDS011;41294;42.666;23.350;2022-07-06T07:41:01;10.48;;;9.38;;
55423;SDS011;41294;42.666;23.350;2022-07-06T07:43:26;12.60;;;10.40;;
55423;SDS011;41294;42.666;23.350;2022-07-06T07:45:52;13.65;;;10.02;;
55423;SDS011;41294;42.666;23.350;2022-07-06T07:48:17;14.82;;;10.23;;
55423;SDS011;41294;42.666;23.350;2022-07-06T07:50:43;11.30;;;9.98;;
55423;SDS011;41294;42.666;23.350;2022-07-06T07:53:08;14.43;;;9.45;;
55423;SDS011;41294;42.666;23.350;2022-07-06T07:55:33;10.85;;;9.75;;
55423;SDS011;41294;42.666;23.350;2022-07-06T07:57:59;10.43;;;9.32;;
55423;SDS011;41294;42.666;23.350;2022-07-06T08:00:25;11.75;;;10.27;;
55423;SDS011;41294;42.666;23.350;2022-07-06T08:02:51;14.35;;;9.50;;
55423;SDS011;41294;42.666;23.350;2022-07-06T08:05:17;35.75;;;12.20;;
55423;SDS011;41294;42.666;23.350;2022-07-06T08:07:43;11.15;;;8.80;;
55423;SDS011;41294;42.666;23.350;2022-07-06T08:10:09;10.88;;;9.30;;
55423;SDS011;41294;42.666;23.350;2022-07-06T08:12:35;10.77;;;8.45;;
55423;SDS011;41294;42.666;23.350;2022-07-06T08:15:01;11.05;;;8.73;;
55423;SDS011;41294;42.666;23.350;2022-07-06T08:17:27;10.40;;;8.80;;
55423;SDS011;41294;42.666;23.350;2022-07-06T08:19:53;12.15;;;9.02;;
55423;SDS011;41294;42.666;23.350;2022-07-06T08:22:18;10.18;;;7.63;;
55423;SDS011;41294;42.666;23.350;2022-07-06T08:24:44;14.07;;;8.50;;
55423;SDS011;41294;42.666;23.350;2022-07-06T08:27:09;9.15;;;8.23;;
55423;SDS011;41294;42.666;23.350;2022-07-06T08:29:34;9.25;;;8.35;;
55423;SDS011;41294;42.666;23.350;2022-07-06T08:32:00;8.70;;;7.90;;
55423;SDS011;41294;42.666;23.350;2022-07-06T08:34:26;10.60;;;8.55;;
55423;SDS011;41294;42.666;23.350;2022-07-06T08:36:52;11.18;;;8.55;;
55423;SDS011;41294;42.666;23.350;2022-07-06T08:39:17;8.57;;;7.65;;
55423;SDS011;41294;42.666;23.350;2022-07-06T08:41:43;9.35;;;8.55;;
55423;SDS011;41294;42.666;23.350;2022-07-06T08:44:12;9.07;;;7.80;;
55423;SDS011;41294;42.666;23.350;2022-07-06T08:46:41;9.38;;;8.48;;
55423;SDS011;41294;42.666;23.350;2022-07-06T08:49:08;14.57;;;9.15;;
55423;SDS011;41294;42.666;23.350;2022-07-06T08:51:35;9.05;;;8.23;;
55423;SDS011;41294;42.666;23.350;2022-07-06T08:54:04;9.93;;;9.02;;
55423;SDS011;41294;42.666;23.350;2022-07-06T08:56:30;12.60;;;9.93;;
55423;SDS011;41294;42.666;23.350;2022-07-06T08:58:57;10.27;;;8.32;;
55423;SDS011;41294;42.666;23.350;2022-07-06T09:01:22;8.98;;;8.10;;
55423;SDS011;41294;42.666;23.350;2022-07-06T09:03:50;9.18;;;8.13;;
55423;SDS011;41294;42.666;23.350;2022-07-06T09:06:16;8.82;;;7.60;;
55423;SDS011;41294;42.666;23.350;2022-07-06T09:08:48;11.48;;;8.70;;
55423;SDS011;41294;42.666;23.350;2022-07-06T09:11:14;9.93;;;8.73;;
55423;SDS011;41294;42.666;23.350;2022-07-06T09:13:40;9.18;;;8.27;;
55423;SDS011;41294;42.666;23.350;2022-07-06T09:16:09;10.27;;;9.20;;
55423;SDS011;41294;42.666;23.350;2022-07-06T09:18:38;10.80;;;9.25;;
55423;SDS011;41294;42.666;23.350;2022-07-06T09:21:07;10.77;;;9.70;;
55423;SDS011;41294;42.666;23.350;2022-07-06T09:23:33;12.05;;;9.57;;
55423;SDS011;41294;42.666;23.350;2022-07-06T09:26:01;11.75;;;10.45;;
55423;SDS011;41294;42.666;23.350;2022-07-06T09:28:41;11.35;;;9.75;;
55423;SDS011;41294;42.666;23.350;2022-07-06T09:31:07;15.18;;;9.63;;
55423;SDS011;41294;42.666;23.350;2022-07-06T09:33:34;10.63;;;9.63;;
55423;SDS011;41294;42.666;23.350;2022-07-06T09:35:59;9.80;;;8.70;;
55423;SDS011;41294;42.666;23.350;2022-07-06T09:38:27;12.95;;;8.95;;
55423;SDS011;41294;42.666;23.350;2022-07-06T09:40:53;10.95;;;9.40;;
55423;SDS011;41294;42.666;23.350;2022-07-06T09:43:19;10.95;;;9.88;;
55423;SDS011;41294;42.666;23.350;2022-07-06T09:45:51;11.25;;;10.05;;
55423;SDS011;41294;42.666;23.350;2022-07-06T09:48:25;11.00;;;9.90;;
55423;SDS011;41294;42.666;23.350;2022-07-06T09:50:52;11.80;;;9.80;;
55423;SDS011;41294;42.666;23.350;2022-07-06T09:53:27;12.57;;;11.32;;
55423;SDS011;41294;42.666;23.350;2022-07-06T09:55:54;13.85;;;11.30;;
55423;SDS011;41294;42.666;23.350;2022-07-06T09:58:20;12.50;;;11.30;;
55423;SDS011;41294;42.666;23.350;2022-07-06T10:00:47;11.90;;;10.70;;
55423;SDS011;41294;42.666;23.350;2022-07-06T10:03:14;11.60;;;10.50;;
55423;SDS011;41294;42.666;23.350;2022-07-06T10:05:41;13.00;;;11.70;;
55423;SDS011;41294;42.666;23.350;2022-07-06T10:08:09;12.88;;;11.57;;
55423;SDS011;41294;42.666;23.350;2022-07-06T10:10:36;12.13;;;10.93;;
55423;SDS011;41294;42.666;23.350;2022-07-06T10:13:03;12.00;;;10.80;;
55423;SDS011;41294;42.666;23.350;2022-07-06T10:15:31;12.05;;;10.50;;
55423;SDS011;41294;42.666;23.350;2022-07-06T10:18:02;12.05;;;10.85;;
55423;SDS011;41294;42.666;23.350;2022-07-06T10:20:32;12.48;;;10.38;;
55423;SDS011;41294;42.666;23.350;2022-07-06T10:23:01;12.43;;;11.10;;
55423;SDS011;41294;42.666;23.350;2022-07-06T10:25:28;11.55;;;10.35;;
55423;SDS011;41294;42.666;23.350;2022-07-06T10:27:54;10.70;;;9.60;;
55423;SDS011;41294;42.666;23.350;2022-07-06T10:30:20;11.52;;;10.35;;
55423;SDS011;41294;42.666;23.350;2022-07-06T10:32:48;10.57;;;9.50;;
55423;SDS011;41294;42.666;23.350;2022-07-06T10:35:19;13.32;;;10.35;;
55423;SDS011;41294;42.666;23.350;2022-07-06T10:37:45;14.25;;;11.95;;
55423;SDS011;41294;42.666;23.350;2022-07-06T10:40:34;11.98;;;10.80;;
55423;SDS011;41294;42.666;23.350;2022-07-06T10:43:19;12.75;;;11.55;;
55423;SDS011;41294;42.666;23.350;2022-07-06T10:50:36;12.25;;;10.93;;
55423;SDS011;41294;42.666;23.350;2022-07-06T10:53:12;12.63;;;11.32;;
55423;SDS011;41294;42.666;23.350;2022-07-06T10:55:39;11.45;;;10.35;;
55423;SDS011;41294;42.666;23.350;2022-07-06T10:58:06;12.25;;;10.57;;
55423;SDS011;41294;42.666;23.350;2022-07-06T11:06:20;11.82;;;10.63;;
55423;SDS011;41294;42.666;23.350;2022-07-06T11:08:48;11.85;;;10.65;;
55423;SDS011;41294;42.666;23.350;2022-07-06T11:13:47;13.32;;;11.52;;
55423;SDS011;41294;42.666;23.350;2022-07-06T11:16:15;13.35;;;12.00;;
55423;SDS011;41294;42.666;23.350;2022-07-06T11:18:42;13.52;;;11.30;;
55423;SDS011;41294;42.666;23.350;2022-07-06T11:21:19;12.30;;;11.20;;
55423;SDS011;41294;42.666;23.350;2022-07-06T11:23:49;11.68;;;10.55;;
55423;SDS011;41294;42.666;23.350;2022-07-06T11:26:16;12.90;;;11.70;;
55423;SDS011;41294;42.666;23.350;2022-07-06T11:28:44;12.20;;;11.10;;
55423;SDS011;41294;42.666;23.350;2022-07-06T11:31:10;12.40;;;11.25;;
55423;SDS011;41294;42.666;23.350;2022-07-06T11:33:36;12.15;;;11.05;;
55423;SDS011;41294;42.666;23.350;2022-07-06T11:36:17;25.00;;;12.48;;
55423;SDS011;41294;42.666;23.350;2022-07-06T11:38:45;11.98;;;10.77;;
55423;SDS011;41294;42.666;23.350;2022-07-06T11:41:12;12.88;;;11.57;;
55423;SDS011;41294;42.666;23.350;2022-07-06T11:43:43;12.27;;;11.20;;
55423;SDS011;41294;42.666;23.350;2022-07-06T11:48:59;12.63;;;11.50;;
55423;SDS011;41294;42.666;23.350;2022-07-06T11:51:26;12.50;;;11.30;;
55423;SDS011;41294;42.666;23.350;2022-07-06T11:53:54;11.85;;;10.65;;
55423;SDS011;41294;42.666;23.350;2022-07-06T11:56:21;11.80;;;10.80;;
55423;SDS011;41294;42.666;23.350;2022-07-06T11:58:50;12.35;;;11.13;;
55423;SDS011;41294;42.666;23.350;2022-07-06T12:01:17;12.18;;;10.73;;
55423;SDS011;41294;42.666;23.350;2022-07-06T12:03:43;12.65;;;11.23;;
55423;SDS011;41294;42.666;23.350;2022-07-06T12:06:27;12.57;;;11.32;;
55423;SDS011;41294;42.666;23.350;2022-07-06T12:08:57;10.35;;;9.45;;
55423;SDS011;41294;42.666;23.350;2022-07-06T12:11:28;13.73;;;9.68;;
55423;SDS011;41294;42.666;23.350;2022-07-06T12:13:58;11.45;;;10.25;;
55423;SDS011;41294;42.666;23.350;2022-07-06T12:16:33;10.98;;;9.93;;
55423;SDS011;41294;42.666;23.350;2022-07-06T12:19:03;11.40;;;10.32;;
55423;SDS011;41294;42.666;23.350;2022-07-06T12:21:29;13.45;;;10.95;;
55423;SDS011;41294;42.666;23.350;2022-07-06T12:23:55;11.48;;;9.57;;
55423;SDS011;41294;42.666;23.350;2022-07-06T12:26:22;10.60;;;9.57;;
55423;SDS011;41294;42.666;23.350;2022-07-06T12:29:04;9.43;;;8.52;;
55423;SDS011;41294;42.666;23.350;2022-07-06T12:31:40;11.00;;;9.30;;
55423;SDS011;41294;42.666;23.350;2022-07-06T12:34:16;11.88;;;9.50;;
55423;SDS011;41294;42.666;23.350;2022-07-06T12:39:17;10.23;;;9.20;;
55423;SDS011;41294;42.666;23.350;2022-07-06T12:41:45;10.77;;;9.73;;
55423;SDS011;41294;42.666;23.350;2022-07-06T12:44:19;10.65;;;9.68;;
55423;SDS011;41294;42.666;23.350;2022-07-06T12:46:47;12.98;;;9.35;;
55423;SDS011;41294;42.666;23.350;2022-07-06T12:54:24;9.52;;;8.63;;
55423;SDS011;41294;42.666;23.350;2022-07-06T12:59:46;10.45;;;8.40;;
55423;SDS011;41294;42.666;23.350;2022-07-06T13:02:18;9.05;;;8.02;;
55423;SDS011;41294;42.666;23.350;2022-07-06T13:04:56;7.93;;;6.35;;
55423;SDS011;41294;42.666;23.350;2022-07-06T13:07:23;7.47;;;6.78;;
55423;SDS011;41294;42.666;23.350;2022-07-06T13:09:50;7.57;;;6.88;;
55423;SDS011;41294;42.666;23.350;2022-07-06T13:12:16;7.70;;;6.78;;
55423;SDS011;41294;42.666;23.350;2022-07-06T13:14:41;7.63;;;6.82;;
55423;SDS011;41294;42.666;23.350;2022-07-06T13:17:07;6.55;;;6.05;;
55423;SDS011;41294;42.666;23.350;2022-07-06T13:19:32;6.25;;;5.65;;
55423;SDS011;41294;42.666;23.350;2022-07-06T13:21:58;6.43;;;5.75;;
55423;SDS011;41294;42.666;23.350;2022-07-06T13:24:23;5.90;;;5.40;;
55423;SDS011;41294;42.666;23.350;2022-07-06T13:26:49;7.22;;;4.80;;
55423;SDS011;41294;42.666;23.350;2022-07-06T13:29:14;5.38;;;4.80;;
55423;SDS011;41294;42.666;23.350;2022-07-06T13:31:40;5.20;;;4.70;;
55423;SDS011;41294;42.666;23.350;2022-07-06T13:34:06;5.15;;;4.68;;
55423;SDS011;41294;42.666;23.350;2022-07-06T13:36:32;6.22;;;4.00;;
55423;SDS011;41294;42.666;23.350;2022-07-06T13:38:59;4.20;;;3.80;;
55423;SDS011;41294;42.666;23.350;2022-07-06T13:41:24;5.50;;;3.95;;
55423;SDS011;41294;42.666;23.350;2022-07-06T13:43:50;4.22;;;3.92;;
55423;SDS011;41294;42.666;23.350;2022-07-06T13:46:15;5.25;;;3.45;;
55423;SDS011;41294;42.666;23.350;2022-07-06T13:48:41;4.18;;;3.88;;
55423;SDS011;41294;42.666;23.350;2022-07-06T13:51:08;12.07;;;3.60;;
55423;SDS011;41294;42.666;23.350;2022-07-06T13:53:34;3.35;;;3.08;;
55423;SDS011;41294;42.666;23.350;2022-07-06T13:56:00;4.18;;;3.17;;
55423;SDS011;41294;42.666;23.350;2022-07-06T13:58:26;6.88;;;3.53;;
55423;SDS011;41294;42.666;23.350;2022-07-06T14:00:51;3.17;;;2.88;;
55423;SDS011;41294;42.666;23.350;2022-07-06T14:03:17;3.28;;;2.97;;
55423;SDS011;41294;42.666;23.350;2022-07-06T14:05:42;3.22;;;2.92;;
55423;SDS011;41294;42.666;23.350;2022-07-06T14:08:08;3.30;;;2.97;;
55423;SDS011;41294;42.666;23.350;2022-07-06T14:10:33;3.42;;;3.08;;
55423;SDS011;41294;42.666;23.350;2022-07-06T14:12:59;3.83;;;2.65;;
55423;SDS011;41294;42.666;23.350;2022-07-06T14:15:24;4.47;;;3.10;;
55423;SDS011;41294;42.666;23.350;2022-07-06T14:17:50;7.03;;;3.13;;
55423;SDS011;41294;42.666;23.350;2022-07-06T14:20:15;2.70;;;2.50;;
55423;SDS011;41294;42.666;23.350;2022-07-06T14:22:41;3.95;;;2.30;;
55423;SDS011;41294;42.666;23.350;2022-07-06T14:25:07;2.85;;;2.28;;
55423;SDS011;41294;42.666;23.350;2022-07-06T14:27:34;4.50;;;2.60;;
55423;SDS011;41294;42.666;23.350;2022-07-06T14:30:00;5.57;;;3.08;;
55423;SDS011;41294;42.666;23.350;2022-07-06T14:32:25;3.15;;;2.75;;
55423;SDS011;41294;42.666;23.350;2022-07-06T14:34:51;2.45;;;2.33;;
55423;SDS011;41294;42.666;23.350;2022-07-06T14:37:16;3.55;;;2.15;;
55423;SDS011;41294;42.666;23.350;2022-07-06T14:39:42;3.67;;;2.40;;
55423;SDS011;41294;42.666;23.350;2022-07-06T14:42:10;3.42;;;2.22;;
55423;SDS011;41294;42.666;23.350;2022-07-06T14:44:36;3.13;;;2.47;;